createdAt,value
2019-04-26T00:00:07.517Z,11.34
2019-04-26T00:01:07.549Z,11.33
2019-04-26T00:02:07.433Z,11.31
2019-04-26T00:03:06.552Z,11.31
2019-04-26T00:04:06.534Z,11.27
2019-04-26T00:05:06.513Z,11.25
2019-04-26T00:06:06.599Z,11.25
2019-04-26T00:07:06.491Z,11.26
2019-04-26T00:08:06.475Z,11.31
2019-04-26T00:09:06.474Z,11.27
2019-04-26T00:10:06.455Z,11.25
2019-04-26T00:11:06.683Z,11.23
2019-04-26T00:12:06.434Z,11.20
2019-04-26T00:13:06.428Z,11.22
2019-04-26T00:14:06.409Z,11.25
2019-04-26T00:15:06.445Z,11.30
2019-04-26T00:16:06.754Z,11.31
2019-04-26T00:17:06.390Z,11.31
2019-04-26T00:18:06.374Z,11.31
2019-04-26T00:19:06.379Z,11.31
2019-04-26T00:20:06.360Z,11.27
2019-04-26T00:21:06.349Z,11.25
2019-04-26T00:22:06.756Z,11.23
2019-04-26T00:23:06.312Z,11.23
2019-04-26T00:24:06.306Z,11.30
2019-04-26T00:25:06.285Z,11.31
2019-04-26T00:26:06.291Z,11.30
2019-04-26T00:27:06.756Z,11.25
2019-04-26T00:28:06.251Z,11.20
2019-04-26T00:29:06.261Z,11.20
2019-04-26T00:30:06.227Z,11.20
2019-04-26T00:31:06.230Z,11.23
2019-04-26T00:32:06.240Z,11.25
2019-04-26T00:33:06.211Z,11.26
2019-04-26T00:34:06.215Z,11.27
2019-04-26T00:35:06.202Z,11.27
2019-04-26T00:36:06.175Z,11.23
2019-04-26T00:37:06.261Z,11.25
2019-04-26T00:38:06.160Z,11.25
2019-04-26T00:39:06.156Z,11.22
2019-04-26T00:40:06.140Z,11.22
2019-04-26T00:41:06.116Z,11.16
2019-04-26T00:42:06.362Z,11.12
2019-04-26T00:43:06.091Z,11.07
2019-04-26T00:44:06.103Z,11.04
2019-04-26T00:45:06.079Z,11.01
2019-04-26T00:46:06.063Z,11.00
2019-04-26T00:47:06.421Z,11.00
2019-04-26T00:48:06.031Z,11.01
2019-04-26T00:49:06.031Z,11.01
2019-04-26T00:50:06.018Z,11.02
2019-04-26T00:51:06.010Z,11.04
2019-04-26T00:52:06.427Z,11.04
2019-04-26T00:53:05.984Z,11.02
2019-04-26T00:54:05.992Z,11.02
2019-04-26T00:55:05.962Z,11.07
2019-04-26T00:56:05.972Z,11.10
2019-04-26T00:57:06.416Z,11.10
2019-04-26T00:58:05.935Z,11.07
2019-04-26T00:59:05.948Z,11.08
2019-04-26T01:00:05.937Z,11.10
2019-04-26T01:01:05.886Z,11.12
2019-04-26T01:02:05.948Z,11.07
2019-04-26T01:03:05.886Z,11.02
2019-04-26T01:04:05.891Z,11.01
2019-04-26T01:05:05.846Z,11.04
2019-04-26T01:06:05.863Z,11.05
2019-04-26T01:07:05.936Z,11.07
2019-04-26T01:08:05.831Z,11.10
2019-04-26T01:09:05.804Z,11.13
2019-04-26T01:10:05.794Z,11.16
2019-04-26T01:11:05.778Z,11.15
2019-04-26T01:12:05.771Z,11.13
2019-04-26T01:13:06.015Z,11.13
2019-04-26T01:14:05.752Z,11.05
2019-04-26T01:15:05.723Z,11.00
2019-04-26T01:16:05.733Z,10.98
2019-04-26T01:17:05.711Z,10.94
2019-04-26T01:18:06.083Z,10.92
2019-04-26T01:19:05.714Z,10.94
2019-04-26T01:20:05.680Z,10.95
2019-04-26T01:21:05.680Z,10.98
2019-04-26T01:22:05.673Z,11.00
2019-04-26T01:23:06.055Z,11.01
2019-04-26T01:24:05.649Z,11.00
2019-04-26T01:25:05.641Z,11.01
2019-04-26T01:26:05.625Z,11.01
2019-04-26T01:27:05.620Z,11.00
2019-04-26T01:28:06.074Z,11.01
2019-04-26T01:29:05.581Z,11.01
2019-04-26T01:30:05.583Z,11.01
2019-04-26T01:31:05.574Z,10.98
2019-04-26T01:32:05.550Z,10.98
2019-04-26T01:33:05.575Z,10.98
2019-04-26T01:34:05.545Z,10.95
2019-04-26T01:35:05.525Z,10.97
2019-04-26T01:36:12.812Z,10.98
2019-04-26T01:37:06.499Z,10.95
2019-04-26T01:38:05.556Z,10.87
2019-04-26T01:39:05.480Z,10.86
2019-04-26T01:40:05.475Z,10.83
2019-04-26T01:41:05.469Z,10.83
2019-04-26T01:42:05.445Z,10.82
2019-04-26T01:43:05.650Z,10.83
2019-04-26T01:44:05.425Z,10.80
2019-04-26T01:45:05.420Z,10.80
2019-04-26T01:46:05.389Z,10.79
2019-04-26T01:47:05.387Z,10.79
2019-04-26T01:48:05.735Z,10.71
2019-04-26T01:49:05.377Z,10.67
2019-04-26T01:50:05.402Z,10.62
2019-04-26T01:51:05.397Z,10.59
2019-04-26T01:52:05.338Z,10.55
2019-04-26T01:53:05.735Z,10.49
2019-04-26T01:54:05.311Z,10.46
2019-04-26T01:55:05.309Z,10.41
2019-04-26T01:56:05.331Z,10.38
2019-04-26T01:57:05.293Z,10.36
2019-04-26T01:58:05.736Z,10.33
2019-04-26T01:59:05.252Z,10.28
2019-04-26T02:00:05.246Z,10.27
2019-04-26T02:01:05.233Z,10.28
2019-04-26T02:02:05.221Z,10.28
2019-04-26T02:03:05.732Z,10.30
2019-04-26T02:04:05.218Z,10.30
2019-04-26T02:05:05.190Z,10.31
2019-04-26T02:06:05.174Z,10.30
2019-04-26T02:07:05.171Z,10.30
2019-04-26T02:08:05.223Z,10.30
2019-04-26T02:09:05.160Z,10.28
2019-04-26T02:10:05.156Z,10.27
2019-04-26T02:11:05.124Z,10.25
2019-04-26T02:12:05.120Z,10.24
2019-04-26T02:13:05.299Z,10.24
2019-04-26T02:14:05.088Z,10.24
2019-04-26T02:15:05.086Z,10.24
2019-04-26T02:16:05.078Z,10.24
2019-04-26T02:17:05.051Z,10.23
2019-04-26T02:18:05.332Z,10.24
2019-04-26T02:19:05.048Z,10.24
2019-04-26T02:20:05.041Z,10.27
2019-04-26T02:21:05.030Z,10.25
2019-04-26T02:22:05.001Z,10.27
2019-04-26T02:23:05.001Z,10.28
2019-04-26T02:24:05.382Z,10.28
2019-04-26T02:25:04.972Z,10.31
2019-04-26T02:26:04.978Z,10.31
2019-04-26T02:27:04.951Z,10.33
2019-04-26T02:28:04.942Z,10.34
2019-04-26T02:29:05.359Z,10.31
2019-04-26T02:30:04.957Z,10.28
2019-04-26T02:31:04.905Z,10.25
2019-04-26T02:32:04.903Z,10.27
2019-04-26T02:33:04.896Z,10.30
2019-04-26T02:34:05.396Z,10.31
2019-04-26T02:35:04.905Z,10.33
2019-04-26T02:36:04.849Z,10.28
2019-04-26T02:37:04.886Z,10.28
2019-04-26T02:38:04.840Z,10.28
2019-04-26T02:39:04.890Z,10.31
2019-04-26T02:40:04.813Z,10.31
2019-04-26T02:41:04.809Z,10.30
2019-04-26T02:42:04.781Z,10.28
2019-04-26T02:43:04.785Z,10.34
2019-04-26T02:44:04.778Z,10.33
2019-04-26T02:45:04.752Z,10.31
2019-04-26T02:46:04.734Z,10.33
2019-04-26T02:47:04.730Z,10.30
2019-04-26T02:48:04.724Z,10.30
2019-04-26T02:49:04.994Z,10.27
2019-04-26T02:50:04.695Z,10.27
2019-04-26T02:51:04.707Z,10.24
2019-04-26T02:52:04.706Z,10.25
2019-04-26T02:53:04.693Z,10.27
2019-04-26T02:54:05.030Z,10.27
2019-04-26T02:55:04.659Z,10.27
2019-04-26T02:56:04.633Z,10.28
2019-04-26T02:57:04.619Z,10.25
2019-04-26T02:58:04.600Z,10.27
2019-04-26T02:59:05.049Z,10.27
2019-04-26T03:00:04.583Z,10.30
2019-04-26T03:01:04.574Z,10.28
2019-04-26T03:02:04.583Z,10.28
2019-04-26T03:03:04.545Z,10.30
2019-04-26T03:04:04.655Z,10.30
2019-04-26T03:05:04.524Z,10.27
2019-04-26T03:06:04.523Z,10.25
2019-04-26T03:07:04.525Z,10.27
2019-04-26T03:08:04.475Z,10.30
2019-04-26T03:09:04.557Z,10.30
2019-04-26T03:10:04.499Z,10.28
2019-04-26T03:11:04.481Z,10.25
2019-04-26T03:12:04.454Z,10.23
2019-04-26T03:13:04.440Z,10.23
2019-04-26T03:14:04.524Z,10.21
2019-04-26T03:15:13.568Z,10.24
2019-04-26T03:16:05.427Z,10.23
2019-04-26T03:17:04.429Z,10.20
2019-04-26T03:18:04.374Z,10.18
2019-04-26T03:19:04.621Z,10.06
2019-04-26T03:20:04.372Z,10.03
2019-04-26T03:21:04.361Z,10.05
2019-04-26T03:22:04.351Z,10.07
2019-04-26T03:23:04.311Z,10.07
2019-04-26T03:24:04.714Z,10.07
2019-04-26T03:25:04.315Z,10.03
2019-04-26T03:26:04.309Z,10.05
2019-04-26T03:27:04.293Z,10.06
2019-04-26T03:28:04.282Z,10.07
2019-04-26T03:29:04.287Z,10.06
2019-04-26T03:30:18.262Z,10.06
2019-04-26T03:31:05.254Z,10.05
2019-04-26T03:32:04.264Z,10.09
2019-04-26T03:33:04.330Z,10.09
2019-04-26T03:34:04.313Z,10.10
2019-04-26T03:35:04.686Z,10.12
2019-04-26T03:36:04.257Z,10.10
2019-04-26T03:37:19.713Z,10.09
2019-04-26T03:38:05.188Z,10.06
2019-04-26T03:39:04.186Z,10.05
2019-04-26T03:40:04.178Z,9.99
2019-04-26T03:41:04.157Z,9.97
2019-04-26T03:42:04.119Z,9.97
2019-04-26T03:43:04.111Z,10.00
2019-04-26T03:44:04.092Z,9.99
2019-04-26T03:45:04.278Z,9.99
2019-04-26T03:46:04.109Z,9.94
2019-04-26T03:47:04.070Z,9.92
2019-04-26T03:48:04.058Z,9.92
2019-04-26T03:49:04.090Z,9.92
2019-04-26T03:50:04.288Z,9.94
2019-04-26T03:51:04.026Z,9.95
2019-04-26T03:52:04.027Z,9.97
2019-04-26T03:53:04.011Z,10.00
2019-04-26T03:54:03.994Z,10.02
2019-04-26T03:55:04.362Z,10.02
2019-04-26T03:56:03.971Z,10.03
2019-04-26T03:57:03.961Z,10.03
2019-04-26T03:58:03.939Z,10.03
2019-04-26T03:59:03.941Z,10.03
2019-04-26T04:00:04.344Z,10.06
2019-04-26T04:01:03.946Z,10.06
2019-04-26T04:02:03.918Z,10.06
2019-04-26T04:03:03.877Z,10.09
2019-04-26T04:04:03.887Z,10.09
2019-04-26T04:05:04.369Z,10.06
2019-04-26T04:06:03.858Z,10.06
2019-04-26T04:07:05.101Z,10.03
2019-04-26T04:08:03.854Z,10.03
2019-04-26T04:09:03.830Z,10.03
2019-04-26T04:10:03.842Z,10.02
2019-04-26T04:11:03.799Z,9.97
2019-04-26T04:12:11.485Z,9.92
2019-04-26T04:13:04.942Z,9.88
2019-04-26T04:14:03.893Z,9.87
2019-04-26T04:15:04.005Z,9.90
2019-04-26T04:16:03.757Z,9.92
2019-04-26T04:17:03.735Z,9.95
2019-04-26T04:18:03.721Z,9.94
2019-04-26T04:19:03.723Z,9.84
2019-04-26T04:20:03.711Z,9.84
2019-04-26T04:21:04.011Z,9.84
2019-04-26T04:22:03.773Z,9.84
2019-04-26T04:23:03.673Z,9.80
2019-04-26T04:24:03.651Z,9.77
2019-04-26T04:25:03.666Z,9.74
2019-04-26T04:26:04.015Z,9.76
2019-04-26T04:27:03.629Z,9.72
2019-04-26T04:28:03.629Z,9.67
2019-04-26T04:29:03.608Z,9.67
2019-04-26T04:30:03.589Z,9.67
2019-04-26T04:31:04.039Z,9.69
2019-04-26T04:32:03.568Z,9.69
2019-04-26T04:33:03.568Z,9.69
2019-04-26T04:34:03.560Z,9.70
2019-04-26T04:35:06.573Z,9.70
2019-04-26T04:36:04.027Z,9.72
2019-04-26T04:37:03.520Z,9.70
2019-04-26T04:38:09.294Z,9.69
2019-04-26T04:39:12.293Z,9.66
2019-04-26T04:40:04.490Z,9.64
2019-04-26T04:41:03.529Z,9.59
2019-04-26T04:42:03.478Z,9.58
2019-04-26T04:43:03.505Z,9.59
2019-04-26T04:44:03.447Z,9.56
2019-04-26T04:45:03.446Z,9.56
2019-04-26T04:46:03.745Z,9.56
2019-04-26T04:47:03.412Z,9.58
2019-04-26T04:48:03.404Z,9.59
2019-04-26T04:49:03.451Z,9.51
2019-04-26T04:50:03.397Z,9.52
2019-04-26T04:51:03.762Z,9.55
2019-04-26T04:52:03.356Z,9.54
2019-04-26T04:53:03.352Z,9.56
2019-04-26T04:54:03.336Z,9.58
2019-04-26T04:55:07.797Z,9.59
2019-04-26T04:56:03.664Z,9.59
2019-04-26T04:57:03.291Z,9.59
2019-04-26T04:58:03.287Z,9.58
2019-04-26T04:59:03.262Z,9.55
2019-04-26T05:00:03.275Z,9.56
2019-04-26T05:01:03.271Z,9.58
2019-04-26T05:02:03.255Z,9.58
2019-04-26T05:03:03.212Z,9.59
2019-04-26T05:04:03.231Z,9.63
2019-04-26T05:05:03.212Z,9.66
2019-04-26T05:06:07.536Z,9.66
2019-04-26T05:07:03.184Z,9.67
2019-04-26T05:08:06.654Z,9.69
2019-04-26T05:09:03.162Z,9.69
2019-04-26T05:10:03.162Z,9.67
2019-04-26T05:11:03.215Z,9.64
2019-04-26T05:12:03.145Z,9.67
2019-04-26T05:13:03.117Z,9.67
2019-04-26T05:14:03.116Z,9.72
2019-04-26T05:15:03.097Z,9.74
2019-04-26T05:16:03.174Z,9.74
2019-04-26T05:17:03.069Z,9.76
2019-04-26T05:18:03.063Z,9.81
2019-04-26T05:19:03.066Z,9.87
2019-04-26T05:20:03.022Z,9.88
2019-04-26T05:21:03.301Z,9.94
2019-04-26T05:22:03.009Z,9.94
2019-04-26T05:23:03.008Z,9.94
2019-04-26T05:24:02.998Z,9.91
2019-04-26T05:25:03.008Z,9.91
2019-04-26T05:26:02.983Z,9.88
2019-04-26T05:27:03.331Z,9.87
2019-04-26T05:28:02.954Z,9.87
2019-04-26T05:29:02.948Z,9.81
2019-04-26T05:30:02.930Z,9.84
2019-04-26T05:31:02.906Z,9.88
2019-04-26T05:32:03.348Z,9.91
2019-04-26T05:33:02.899Z,9.87
2019-04-26T05:34:02.918Z,9.90
2019-04-26T05:35:02.854Z,9.91
2019-04-26T05:36:02.867Z,9.92
2019-04-26T05:37:03.347Z,9.88
2019-04-26T05:38:02.847Z,9.88
2019-04-26T05:39:02.835Z,9.92
2019-04-26T05:40:02.823Z,9.91
2019-04-26T05:41:02.832Z,9.95
2019-04-26T05:42:02.848Z,9.97
2019-04-26T05:43:02.784Z,9.99
2019-04-26T05:44:02.779Z,10.02
2019-04-26T05:45:02.774Z,9.99
2019-04-26T05:46:02.735Z,9.99
2019-04-26T05:47:02.860Z,10.00
2019-04-26T05:48:10.720Z,9.99
2019-04-26T05:49:03.718Z,9.97
2019-04-26T05:50:02.709Z,9.99
2019-04-26T05:51:02.694Z,10.02
2019-04-26T05:52:02.958Z,10.05
2019-04-26T05:53:02.679Z,10.05
2019-04-26T05:54:02.662Z,10.10
2019-04-26T05:55:02.750Z,10.17
2019-04-26T05:56:02.658Z,10.23
2019-04-26T05:57:02.993Z,10.25
2019-04-26T05:58:02.926Z,10.25
2019-04-26T05:59:03.142Z,10.21
2019-04-26T06:00:02.611Z,10.25
2019-04-26T06:01:02.579Z,10.28
2019-04-26T06:02:03.003Z,10.38
2019-04-26T06:03:02.555Z,10.38
2019-04-26T06:04:02.674Z,10.43
2019-04-26T06:05:02.556Z,10.48
2019-04-26T06:06:05.237Z,10.53
2019-04-26T06:07:02.993Z,10.53
2019-04-26T06:08:03.038Z,10.55
2019-04-26T06:09:02.529Z,10.59
2019-04-26T06:10:03.117Z,10.64
2019-04-26T06:11:02.717Z,10.65
2019-04-26T06:12:02.487Z,10.65
2019-04-26T06:13:02.971Z,10.61
2019-04-26T06:14:02.440Z,10.62
2019-04-26T06:15:02.445Z,10.62
2019-04-26T06:16:02.477Z,10.62
2019-04-26T06:17:02.508Z,10.61
2019-04-26T06:18:02.399Z,10.53
2019-04-26T06:19:02.390Z,10.53
2019-04-26T06:20:02.634Z,10.46
2019-04-26T06:21:02.366Z,10.38
2019-04-26T06:22:02.611Z,10.31
2019-04-26T06:23:02.334Z,10.31
2019-04-26T06:24:02.346Z,10.30
2019-04-26T06:25:02.928Z,10.28
2019-04-26T06:26:03.398Z,10.30
2019-04-26T06:27:13.342Z,10.31
2019-04-26T06:28:03.317Z,10.30
2019-04-26T06:29:03.233Z,10.25
2019-04-26T06:30:03.336Z,10.21
2019-04-26T06:31:02.246Z,10.20
2019-04-26T06:32:02.658Z,10.24
2019-04-26T06:33:05.534Z,10.25
2019-04-26T06:34:03.005Z,10.25
2019-04-26T06:35:03.421Z,10.25
2019-04-26T06:36:02.254Z,10.23
2019-04-26T06:37:02.352Z,10.23
2019-04-26T06:38:03.921Z,10.23
2019-04-26T06:39:02.221Z,10.23
2019-04-26T06:40:02.308Z,10.18
2019-04-26T06:41:02.530Z,10.18
2019-04-26T06:42:02.900Z,10.21
2019-04-26T06:43:02.763Z,10.20
2019-04-26T06:44:02.725Z,10.23
2019-04-26T06:45:02.885Z,10.27
2019-04-26T06:46:02.694Z,10.25
2019-04-26T06:47:02.093Z,10.25
2019-04-26T06:48:02.199Z,10.28
2019-04-26T06:49:02.048Z,10.33
2019-04-26T06:50:02.054Z,10.36
2019-04-26T06:51:02.738Z,10.36
2019-04-26T06:52:02.584Z,10.36
2019-04-26T06:53:02.258Z,10.34
2019-04-26T06:54:01.991Z,10.39
2019-04-26T06:55:02.271Z,10.36
2019-04-26T06:56:02.918Z,10.39
2019-04-26T06:57:11.557Z,10.43
2019-04-26T06:58:03.308Z,10.46
2019-04-26T06:59:01.974Z,10.45
2019-04-26T07:00:02.313Z,10.48
2019-04-26T07:01:01.934Z,10.46
2019-04-26T07:02:02.927Z,10.45
2019-04-26T07:03:03.550Z,10.48
2019-04-26T07:04:02.116Z,10.49
2019-04-26T07:05:02.876Z,10.51
2019-04-26T07:06:02.482Z,10.38
2019-04-26T07:07:02.642Z,10.39
2019-04-26T07:08:03.309Z,10.45
2019-04-26T07:09:02.695Z,10.43
2019-04-26T07:10:02.035Z,10.53
2019-04-26T07:11:02.752Z,10.53
2019-04-26T07:12:02.874Z,10.58
2019-04-26T07:13:02.323Z,10.62
2019-04-26T07:14:02.694Z,10.65
2019-04-26T07:15:02.239Z,10.69
2019-04-26T07:16:16.056Z,10.68
2019-04-26T07:17:02.754Z,10.72
2019-04-26T07:18:02.169Z,10.80
2019-04-26T07:19:01.736Z,10.79
2019-04-26T07:20:03.988Z,10.75
2019-04-26T07:21:01.706Z,10.75
2019-04-26T07:22:02.009Z,10.77
2019-04-26T07:23:02.107Z,10.86
2019-04-26T07:24:02.777Z,10.92
2019-04-26T07:25:01.648Z,11.01
2019-04-26T07:26:01.727Z,11.05
2019-04-26T07:27:03.008Z,11.16
2019-04-26T07:28:06.026Z,11.20
2019-04-26T07:29:03.039Z,11.27
2019-04-26T07:30:03.264Z,11.38
2019-04-26T07:31:02.627Z,11.43
2019-04-26T07:32:02.278Z,11.43
2019-04-26T07:33:02.421Z,11.48
2019-04-26T07:34:02.374Z,11.45
2019-04-26T07:35:02.637Z,11.60
2019-04-26T07:36:02.740Z,11.74
2019-04-26T07:37:02.866Z,11.88
2019-04-26T07:38:02.631Z,12.00
2019-04-26T07:39:13.500Z,12.11
2019-04-26T07:40:02.971Z,12.18
2019-04-26T07:41:01.617Z,12.30
2019-04-26T07:42:01.781Z,12.43
2019-04-26T07:43:01.832Z,12.51
2019-04-26T07:44:02.761Z,12.62
2019-04-26T07:45:02.229Z,12.72
2019-04-26T07:46:02.916Z,12.70
2019-04-26T07:47:01.516Z,12.66
2019-04-26T07:48:03.153Z,12.51
2019-04-26T07:49:01.690Z,12.28
2019-04-26T07:50:03.512Z,12.12
2019-04-26T07:51:02.984Z,12.18
2019-04-26T07:52:02.779Z,12.25
2019-04-26T07:53:03.241Z,12.39
2019-04-26T07:54:02.285Z,12.40
2019-04-26T07:55:03.188Z,12.28
2019-04-26T07:56:02.299Z,12.37
2019-04-26T07:57:03.083Z,12.48
2019-04-26T07:58:01.332Z,12.55
2019-04-26T07:59:04.192Z,12.32
2019-04-26T08:00:01.290Z,12.14
2019-04-26T08:01:01.287Z,12.17
2019-04-26T08:02:01.278Z,12.26
2019-04-26T08:03:01.252Z,12.29
2019-04-26T08:04:01.613Z,12.26
2019-04-26T08:05:01.226Z,12.25
2019-04-26T08:06:01.221Z,12.25
2019-04-26T08:07:01.230Z,12.23
2019-04-26T08:08:01.200Z,12.18
2019-04-26T08:09:01.624Z,12.17
2019-04-26T08:10:01.191Z,12.18
2019-04-26T08:11:01.178Z,12.15
2019-04-26T08:12:01.177Z,12.05
2019-04-26T08:13:01.137Z,11.91
2019-04-26T08:14:01.638Z,11.83
2019-04-26T08:15:01.135Z,11.81
2019-04-26T08:16:01.109Z,11.77
2019-04-26T08:17:01.100Z,11.74
2019-04-26T08:18:01.079Z,11.77
2019-04-26T08:19:01.118Z,11.78
2019-04-26T08:20:01.087Z,11.71
2019-04-26T08:21:02.532Z,11.67
2019-04-26T08:22:14.827Z,11.71
2019-04-26T08:23:02.722Z,11.68
2019-04-26T08:24:01.132Z,11.73
2019-04-26T08:25:01.018Z,11.71
2019-04-26T08:26:09.077Z,11.78
2019-04-26T08:27:08.765Z,11.83
2019-04-26T08:28:01.985Z,11.81
2019-04-26T08:29:12.617Z,11.93
2019-04-26T08:30:03.485Z,11.91
2019-04-26T08:31:04.599Z,11.81
2019-04-26T08:32:00.942Z,11.93
2019-04-26T08:33:02.077Z,11.93
2019-04-26T08:34:01.948Z,11.96
2019-04-26T08:35:02.323Z,11.95
2019-04-26T08:36:01.915Z,11.93
2019-04-26T08:37:01.931Z,11.95
2019-04-26T08:38:00.901Z,11.91
2019-04-26T08:39:18.833Z,12.03
2019-04-26T08:40:00.855Z,12.08
2019-04-26T08:41:08.595Z,12.12
2019-04-26T08:42:01.668Z,12.25
2019-04-26T08:43:05.905Z,12.29
2019-04-26T08:44:03.744Z,12.29
2019-04-26T08:45:04.694Z,12.36
2019-04-26T08:46:03.483Z,12.43
2019-04-26T08:47:00.794Z,12.26
2019-04-26T08:48:00.783Z,12.25
2019-04-26T08:49:02.129Z,12.30
2019-04-26T08:50:00.789Z,12.36
2019-04-26T08:51:00.750Z,12.37
2019-04-26T08:52:00.735Z,12.48
2019-04-26T08:53:00.716Z,12.48
2019-04-26T08:54:00.960Z,12.51
2019-04-26T08:55:00.718Z,12.55
2019-04-26T08:56:00.728Z,12.55
2019-04-26T08:57:00.672Z,12.61
2019-04-26T08:58:00.673Z,12.63
2019-04-26T08:59:00.954Z,12.75
2019-04-26T09:00:00.657Z,12.81
2019-04-26T09:01:00.649Z,12.98
2019-04-26T09:02:00.618Z,13.13
2019-04-26T09:03:10.967Z,13.13
2019-04-26T09:04:02.022Z,13.16
2019-04-26T09:05:00.577Z,12.99
2019-04-26T09:06:00.577Z,13.02
2019-04-26T09:07:00.552Z,13.08
2019-04-26T09:08:00.558Z,13.19
2019-04-26T09:09:01.009Z,13.26
2019-04-26T09:10:01.555Z,13.23
2019-04-26T09:11:01.528Z,13.27
2019-04-26T09:12:03.872Z,13.46
2019-04-26T09:13:01.489Z,13.62
2019-04-26T09:14:00.998Z,13.73
2019-04-26T09:15:00.470Z,13.89
2019-04-26T09:16:00.535Z,14.04
2019-04-26T09:17:00.480Z,14.16
2019-04-26T09:18:02.165Z,14.13
2019-04-26T09:19:00.440Z,14.19
2019-04-26T09:20:07.195Z,13.79
2019-04-26T09:21:01.406Z,13.87
2019-04-26T09:22:12.538Z,14.12
2019-04-26T09:23:03.888Z,14.19
2019-04-26T09:24:00.598Z,14.31
2019-04-26T09:25:01.031Z,14.56
2019-04-26T09:26:00.365Z,14.55
2019-04-26T09:27:00.380Z,14.67
2019-04-26T09:28:00.363Z,14.41
2019-04-26T09:29:00.581Z,14.45
2019-04-26T09:30:00.533Z,14.45
2019-04-26T09:31:00.318Z,14.45
2019-04-26T09:32:00.287Z,14.59
2019-04-26T09:33:02.017Z,14.56
2019-04-26T09:34:00.686Z,14.56
2019-04-26T09:35:00.266Z,14.48
2019-04-26T09:36:00.250Z,14.45
2019-04-26T09:37:00.256Z,14.40
2019-04-26T09:38:00.234Z,14.37
2019-04-26T09:39:03.987Z,14.45
2019-04-26T09:40:09.999Z,14.41
2019-04-26T09:41:01.193Z,14.20
2019-04-26T09:42:01.136Z,14.12
2019-04-26T09:43:02.506Z,14.03
2019-04-26T09:44:00.668Z,13.86
2019-04-26T09:45:00.155Z,13.86
2019-04-26T09:46:00.128Z,13.86
2019-04-26T09:47:00.137Z,13.80
2019-04-26T09:48:00.099Z,13.91
2019-04-26T09:49:03.106Z,14.13
2019-04-26T09:50:01.118Z,14.22
2019-04-26T09:51:00.074Z,14.30
2019-04-26T09:52:00.177Z,14.55
2019-04-26T09:53:00.063Z,14.41
2019-04-26T09:54:00.043Z,14.38
2019-04-26T09:55:00.042Z,14.41
2019-04-26T09:56:00.030Z,14.34
2019-04-26T09:57:00.262Z,14.28
2019-04-26T09:58:00.028Z,14.36
2019-04-26T09:59:01.456Z,14.26
2019-04-26T10:00:01.033Z,14.25
2019-04-26T10:00:59.973Z,14.23
2019-04-26T10:02:00.322Z,14.33
2019-04-26T10:02:59.984Z,14.37
2019-04-26T10:03:59.988Z,14.31
2019-04-26T10:05:08.022Z,14.19
2019-04-26T10:05:59.934Z,14.01
2019-04-26T10:07:10.834Z,13.98
2019-04-26T10:07:59.911Z,13.97
2019-04-26T10:08:59.876Z,13.76
2019-04-26T10:10:00.934Z,13.71
2019-04-26T10:10:59.890Z,13.70
2019-04-26T10:11:59.880Z,13.68
2019-04-26T10:12:59.871Z,13.60
2019-04-26T10:13:59.849Z,13.43
2019-04-26T10:14:59.845Z,13.50
2019-04-26T10:16:02.491Z,13.62
2019-04-26T10:16:59.796Z,13.73
2019-04-26T10:17:59.839Z,13.64
2019-04-26T10:18:59.773Z,13.58
2019-04-26T10:19:59.821Z,13.62
2019-04-26T10:20:59.759Z,13.70
2019-04-26T10:21:59.763Z,13.86
2019-04-26T10:22:59.761Z,14.03
2019-04-26T10:23:59.739Z,14.19
2019-04-26T10:25:02.342Z,14.41
2019-04-26T10:26:00.695Z,14.59
2019-04-26T10:27:03.403Z,14.74
2019-04-26T10:28:00.697Z,14.79
2019-04-26T10:28:59.682Z,14.94
2019-04-26T10:30:07.751Z,15.23
2019-04-26T10:31:00.638Z,15.37
2019-04-26T10:31:59.631Z,15.45
2019-04-26T10:33:02.117Z,15.69
2019-04-26T10:33:59.595Z,15.81
2019-04-26T10:34:59.609Z,15.87
2019-04-26T10:35:59.588Z,15.87
2019-04-26T10:37:01.685Z,15.88
2019-04-26T10:38:01.014Z,16.03
2019-04-26T10:38:59.779Z,15.91
2019-04-26T10:39:59.561Z,16.03
2019-04-26T10:40:59.523Z,16.03
2019-04-26T10:41:59.539Z,16.46
2019-04-26T10:43:00.008Z,16.39
2019-04-26T10:43:59.495Z,16.58
2019-04-26T10:44:59.485Z,16.50
2019-04-26T10:45:59.493Z,16.50
2019-04-26T10:46:59.920Z,15.92
2019-04-26T10:47:59.516Z,15.92
2019-04-26T10:49:08.927Z,15.87
2019-04-26T10:50:00.416Z,16.03
2019-04-26T10:50:59.422Z,16.26
2019-04-26T10:51:59.421Z,16.50
2019-04-26T10:52:59.590Z,16.64
2019-04-26T10:54:01.765Z,16.76
2019-04-26T10:55:00.375Z,16.65
2019-04-26T10:55:59.408Z,16.24
2019-04-26T10:56:59.385Z,16.10
2019-04-26T10:57:59.654Z,16.28
2019-04-26T10:58:59.337Z,16.49
2019-04-26T10:59:59.347Z,16.68
2019-04-26T11:00:59.307Z,16.54
2019-04-26T11:01:59.332Z,16.34
2019-04-26T11:03:00.019Z,16.18
2019-04-26T11:03:59.307Z,15.88
2019-04-26T11:04:59.288Z,15.78
2019-04-26T11:05:59.277Z,15.43
2019-04-26T11:07:01.910Z,15.30
2019-04-26T11:07:59.247Z,15.29
2019-04-26T11:08:59.220Z,15.36
2019-04-26T11:09:59.224Z,15.33
2019-04-26T11:10:59.227Z,15.14
2019-04-26T11:11:59.182Z,15.08
2019-04-26T11:12:59.674Z,14.99
2019-04-26T11:13:59.152Z,14.85
2019-04-26T11:14:59.153Z,14.79
2019-04-26T11:16:02.468Z,14.66
2019-04-26T11:17:00.130Z,14.59
2019-04-26T11:17:59.187Z,14.61
2019-04-26T11:19:01.182Z,14.67
2019-04-26T11:19:59.102Z,14.71
2019-04-26T11:20:59.079Z,14.74
2019-04-26T11:21:59.082Z,14.79
2019-04-26T12:04:20.154Z,17.42
2019-04-26T12:05:20.080Z,17.38
2019-04-26T12:06:21.378Z,17.34
2019-04-26T12:07:20.074Z,17.17
2019-04-26T12:08:20.647Z,16.94
2019-04-26T12:09:20.040Z,16.83
2019-04-26T12:10:20.026Z,16.44
2019-04-26T12:11:26.225Z,16.58
2019-04-26T12:12:21.030Z,16.69
2019-04-26T12:13:21.257Z,16.77
2019-04-26T12:14:20.771Z,16.80
2019-04-26T12:15:30.100Z,16.83
2019-04-26T12:16:20.980Z,16.74
2019-04-26T12:17:19.956Z,16.58
2019-04-26T12:18:19.966Z,16.82
2019-04-26T12:19:20.323Z,16.86
2019-04-26T12:20:22.342Z,16.65
2019-04-26T12:21:20.953Z,16.84
2019-04-26T12:22:19.900Z,17.14
2019-04-26T12:23:21.770Z,17.09
2019-04-26T12:24:19.902Z,17.30
2019-04-26T12:25:19.894Z,17.31
2019-04-26T12:26:21.628Z,17.27
2019-04-26T12:27:19.918Z,16.95
2019-04-26T12:28:19.865Z,16.29
2019-04-26T12:29:20.293Z,16.00
2019-04-26T12:30:23.202Z,15.94
2019-04-26T12:31:20.827Z,16.00
2019-04-26T12:32:19.833Z,15.94
2019-04-26T12:33:19.789Z,15.83
2019-04-26T12:34:19.805Z,15.59
2019-04-26T12:35:19.786Z,15.35
2019-04-26T12:36:19.761Z,15.65
2019-04-26T12:37:21.051Z,16.00
2019-04-26T12:38:19.748Z,16.28
2019-04-26T12:39:19.813Z,16.44
2019-04-26T12:40:19.745Z,16.74
2019-04-26T12:41:25.314Z,17.05
2019-04-26T12:42:20.708Z,17.34
2019-04-26T12:43:20.198Z,17.46
2019-04-26T12:44:19.899Z,17.53
2019-04-26T12:45:19.643Z,17.60
2019-04-26T12:46:22.783Z,17.82
2019-04-26T12:47:20.653Z,17.98
2019-04-26T12:48:19.639Z,17.72
2019-04-26T12:49:20.236Z,17.73
2019-04-26T12:50:19.623Z,17.73
2019-04-26T12:51:19.604Z,17.90
2019-04-26T12:52:21.645Z,17.90
2019-04-26T12:53:19.560Z,17.93
2019-04-26T12:54:19.902Z,17.91
2019-04-26T12:55:20.227Z,18.05
2019-04-26T12:56:19.538Z,18.15
2019-04-26T12:57:19.537Z,18.11
2019-04-26T12:58:19.498Z,18.23
2019-04-26T12:59:22.359Z,17.88
2019-04-26T13:00:20.479Z,17.94
2019-04-26T13:01:19.485Z,18.16
2019-04-26T13:02:20.991Z,18.39
2019-04-26T13:03:20.733Z,18.31
2019-04-26T13:04:19.899Z,18.34
2019-04-26T13:05:20.593Z,18.11
2019-04-26T13:06:19.431Z,18.11
2019-04-26T13:07:23.731Z,18.33
2019-04-26T13:08:19.442Z,18.41
2019-04-26T13:09:21.877Z,18.52
2019-04-26T13:10:20.415Z,18.64
2019-04-26T13:11:19.385Z,18.36
2019-04-26T13:12:19.382Z,18.30
2019-04-26T13:13:19.358Z,18.00
2019-04-26T13:14:19.430Z,17.95
2019-04-26T13:15:19.335Z,18.08
2019-04-26T13:16:21.446Z,18.15
2019-04-26T13:17:20.339Z,18.00
2019-04-26T13:18:19.322Z,17.98
2019-04-26T13:19:20.004Z,18.03
2019-04-26T13:20:19.306Z,18.23
2019-04-26T13:21:19.301Z,18.45
2019-04-26T13:22:19.255Z,18.52
2019-04-26T13:23:19.238Z,18.51
2019-04-26T13:24:19.508Z,18.61
2019-04-26T13:25:26.246Z,18.58
2019-04-26T13:26:20.206Z,18.64
2019-04-26T13:27:19.201Z,18.67
2019-04-26T13:28:20.336Z,18.48
2019-04-26T13:29:19.554Z,18.26
2019-04-26T13:30:22.840Z,18.18
2019-04-26T13:31:20.184Z,18.00
2019-04-26T13:32:19.176Z,17.75
2019-04-26T13:33:19.144Z,17.60
2019-04-26T13:34:19.162Z,17.63
2019-04-26T13:35:19.118Z,17.69
2019-04-26T13:36:19.113Z,17.63
2019-04-26T13:37:19.119Z,17.68